Time;durP1;ratioP1;P1;durP2;ratioP2;P2;SDS_P1;SDS_P2;PMS_P1;PMS_P2;Temp;Humidity;BMP_temperature;BMP_pressure;BME280_temperature;BME280_humidity;BME280_pressure;Samples;Min_cycle;Max_cycle;Signal;HPM_P1;HPM_P2
2023/08/22 00:01:06;;;;;;;1.73;1.45;;;;;;;;;;5074003;28;20048;-32
2023/08/22 00:03:33;;;;;;;2.10;1.80;;;22.20;85.20;;;;;;5074209;28;20131;-31
2023/08/22 00:06:00;;;;;;;2.40;1.80;;;22.80;85.20;;;;;;5074456;28;20132;-31
2023/08/22 00:08:26;;;;;;;4.03;1.70;;;21.60;77.20;;;;;;5074162;28;20477;-33
2023/08/22 00:10:53;;;;;;;1.90;1.55;;;22.10;85.70;;;;;;5069981;28;20119;-30
2023/08/22 00:13:20;;;;;;;2.22;1.70;;;;;;;;;;5053640;28;20554;-30
2023/08/22 00:15:48;;;;;;;2.15;1.60;;;23.10;85.70;;;;;;5053905;28;20482;-31
2023/08/22 00:18:15;;;;;;;3.08;1.48;;;21.40;83.60;;;;;;5054101;28;20135;-31
2023/08/22 00:20:42;;;;;;;3.67;2.22;;;23.00;86.10;;;;;;5054163;28;20556;-30
2023/08/22 00:23:09;;;;;;;1.92;1.60;;;;;;;;;;5053581;28;20108;-31
2023/08/22 00:25:36;;;;;;;3.28;1.40;;;;;;;;;;5053877;28;20049;-30
2023/08/22 00:28:03;;;;;;;2.45;1.65;;;23.30;72.50;;;;;;5054067;28;20127;-31
2023/08/22 00:30:30;;;;;;;1.95;1.42;;;23.50;77.20;;;;;;5053954;28;20091;-31
2023/08/22 00:32:58;;;;;;;2.10;1.60;;;21.90;84.80;;;;;;5053668;28;20136;-30
2023/08/22 00:35:28;;;;;;;2.08;1.52;;;22.20;85.80;;;;;;5053708;28;20132;-31
2023/08/22 00:37:55;;;;;;;2.05;1.50;;;21.70;85.20;;;;;;5070370;28;20049;-30
2023/08/22 00:40:21;;;;;;;2.50;1.40;;;22.60;76.70;;;;;;5073523;28;20135;-31
2023/08/22 00:42:50;;;;;;;2.00;1.50;;;22.70;86.10;;;;;;5072154;28;20123;-31
2023/08/22 00:45:17;;;;;;;2.25;1.50;;;22.40;85.60;;;;;;5053713;28;20049;-31
2023/08/22 00:47:44;;;;;;;2.03;1.45;;;;;;;;;;5067944;28;20460;-31
2023/08/22 00:50:12;;;;;;;1.70;1.27;;;22.40;85.80;;;;;;5070214;28;20503;-30
2023/08/22 00:52:38;;;;;;;2.40;1.67;;;21.70;84.70;;;;;;5061907;28;20121;-31
2023/08/22 00:55:06;;;;;;;1.92;1.40;;;22.30;84.90;;;;;;5063035;28;20501;-31
2023/08/22 00:57:33;;;;;;;1.67;1.50;;;;;;;;;;5064207;28;20056;-34
2023/08/22 01:00:00;;;;;;;2.75;1.42;;;;;;;;;;5062452;28;20120;-33
2023/08/22 01:02:27;;;;;;;1.95;1.50;;;22.00;85.20;;;;;;5063472;28;20103;-31
2023/08/22 01:04:53;;;;;;;2.92;1.50;;;22.30;85.00;;;;;;5061731;28;20124;-30
2023/08/22 01:07:24;;;;;;;2.63;1.60;;;22.20;68.80;;;;;;5063533;28;20119;-31
2023/08/22 01:09:54;;;;;;;2.05;1.50;;;22.80;86.10;;;;;;5063874;28;20553;-31
2023/08/22 01:12:23;;;;;;;2.17;1.50;;;22.20;85.70;;;;;;5061956;28;20127;-32
2023/08/22 01:14:52;;;;;;;2.65;1.63;;;22.80;69.10;;;;;;5062043;28;20048;-31
2023/08/22 01:17:19;;;;;;;2.15;1.60;;;22.60;85.20;;;;;;5062330;28;20124;-31
2023/08/22 01:19:46;;;;;;;2.05;1.30;;;;;;;;;;5061760;28;20128;-30
2023/08/22 01:22:15;;;;;;;4.25;1.58;;;21.90;85.60;;;;;;5062640;28;20498;-30
2023/08/22 01:24:42;;;;;;;2.63;1.60;;;;;;;;;;5062894;28;20118;-32
2023/08/22 01:27:09;;;;;;;1.90;1.50;;;;;;;;;;5051995;28;20124;-33
2023/08/22 01:29:39;;;;;;;4.43;1.60;;;21.60;70.90;;;;;;5052749;28;20128;-31
2023/08/22 01:32:08;;;;;;;3.33;1.70;;;22.90;85.60;;;;;;5053052;28;20136;-32
2023/08/22 01:34:36;;;;;;;2.15;1.60;;;22.80;74.00;;;;;;5053874;28;20045;-31
2023/08/22 01:37:03;;;;;;;2.08;1.60;;;;;;;;;;5062543;28;20131;-32
2023/08/22 01:39:31;;;;;;;1.80;1.50;;;23.00;84.80;;;;;;5072690;28;20132;-30
2023/08/22 01:41:58;;;;;;;1.83;1.40;;;22.20;84.90;;;;;;5072677;28;20127;-31
2023/08/22 01:44:25;;;;;;;2.22;1.70;;;21.90;85.60;;;;;;5072040;28;20127;-32
2023/08/22 01:46:51;;;;;;;2.22;1.60;;;21.10;70.30;;;;;;5072642;28;20132;-31
2023/08/22 01:49:18;;;;;;;2.75;1.52;;;;;;;;;;5066520;28;20124;-30
2023/08/22 01:51:45;;;;;;;2.95;1.70;;;;;;;;;;5052519;28;20136;-34
2023/08/22 01:54:12;;;;;;;2.17;1.58;;;21.50;85.40;;;;;;5052510;28;20127;-30
2023/08/22 01:56:40;;;;;;;2.78;1.50;;;23.40;85.60;;;;;;5052363;28;20045;-31
2023/08/22 01:59:07;;;;;;;1.95;1.60;;;22.20;85.40;;;;;;5052301;28;20200;-31
2023/08/22 02:01:34;;;;;;;2.58;1.60;;;;;;;;;;5053107;28;20130;-34
2023/08/22 02:04:03;;;;;;;2.20;1.50;;;22.50;85.20;;;;;;5072262;28;20055;-31
2023/08/22 02:06:30;;;;;;;4.10;1.70;;;22.60;83.60;;;;;;5057921;28;20106;-32
2023/08/22 02:08:57;;;;;;;2.35;1.50;;;23.40;85.60;;;;;;5051769;28;20430;-30
2023/08/22 02:11:24;;;;;;;2.53;1.60;;;22.00;85.20;;;;;;5052106;28;20239;-33
2023/08/22 02:13:52;;;;;;;2.85;1.80;;;22.00;81.50;;;;;;5051815;28;20131;-35
2023/08/22 02:16:19;;;;;;;2.08;1.60;;;22.20;76.70;;;;;;5052462;28;20055;-36
2023/08/22 02:18:45;;;;;;;1.73;1.50;;;22.00;84.90;;;;;;5052278;28;20463;-36
2023/08/22 02:21:13;;;;;;;2.35;1.73;;;;;;;;;;5052035;28;20041;-31
2023/08/22 02:23:39;;;;;;;3.25;1.67;;;22.00;68.60;;;;;;5051585;28;20084;-34
2023/08/22 02:26:07;;;;;;;2.05;1.60;;;;;;;;;;5052188;28;20483;-32
2023/08/22 02:28:33;;;;;;;2.47;1.50;;;21.80;84.70;;;;;;5052217;28;20127;-37
2023/08/22 02:31:02;;;;;;;3.55;1.60;;;22.40;85.10;;;;;;5051769;28;20498;-36
2023/08/22 02:33:29;;;;;;;2.92;1.70;;;;;;;;;;5051915;28;20052;-33
2023/08/22 02:35:56;;;;;;;1.95;1.50;;;22.10;85.30;;;;;;5052015;28;20052;-38
2023/08/22 02:38:23;;;;;;;2.28;1.60;;;22.50;85.20;;;;;;5071620;28;20699;-35
2023/08/22 02:40:49;;;;;;;2.15;1.50;;;22.00;82.90;;;;;;5071462;28;20131;-36
2023/08/22 02:43:16;;;;;;;2.80;1.55;;;22.40;85.90;;;;;;5071750;28;20444;-38
2023/08/22 02:45:45;;;;;;;2.88;1.83;;;22.20;68.70;;;;;;5071665;28;20131;-35
2023/08/22 02:48:13;;;;;;;2.00;1.40;;;22.20;68.70;;;;;;5071987;28;20147;-33
2023/08/22 02:50:39;;;;;;;2.60;1.40;;;21.90;75.60;;;;;;5051663;28;20047;-35
2023/08/22 02:53:06;;;;;;;1.70;1.52;;;22.40;85.50;;;;;;5051607;28;20128;-36
2023/08/22 02:55:33;;;;;;;2.08;1.45;;;;;;;;;;5052014;28;20132;-35
2023/08/22 02:58:00;;;;;;;2.83;1.50;;;21.80;85.50;;;;;;5051286;28;20501;-35
2023/08/22 03:00:27;;;;;;;1.80;1.48;;;22.30;85.50;;;;;;5051665;28;20131;-36
2023/08/22 03:02:54;;;;;;;4.90;1.80;;;22.40;76.50;;;;;;5056639;28;20045;-36
2023/08/22 03:05:22;;;;;;;1.80;1.50;;;22.10;85.80;;;;;;5051699;28;20128;-35
2023/08/22 03:07:48;;;;;;;2.33;1.50;;;22.50;77.00;;;;;;5051525;28;20147;-34
2023/08/22 03:10:15;;;;;;;2.38;1.55;;;22.30;85.00;;;;;;5051482;28;20135;-35
2023/08/22 03:12:42;;;;;;;2.42;1.58;;;;;;;;;;5051422;28;20080;-35
2023/08/22 03:15:10;;;;;;;2.30;1.60;;;;;;;;;;5051699;28;20053;-35
2023/08/22 03:17:37;;;;;;;2.10;1.70;;;21.60;85.10;;;;;;5051922;28;20055;-38
2023/08/22 03:20:06;;;;;;;2.42;1.55;;;21.70;85.20;;;;;;5064756;28;20756;-36
2023/08/22 03:22:34;;;;;;;3.80;1.60;;;22.00;76.60;;;;;;5071392;28;20052;-38
2023/08/22 03:25:00;;;;;;;2.78;1.80;;;21.60;74.30;;;;;;5071254;28;20123;-38
2023/08/22 03:27:27;;;;;;;2.88;1.80;;;22.90;85.40;;;;;;5071345;28;20136;-36
2023/08/22 03:29:54;;;;;;;1.90;1.50;;;;;;;;;;5071568;28;20111;-32
2023/08/22 03:32:21;;;;;;;2.22;1.85;;;22.50;85.20;;;;;;5071176;28;20269;-34
2023/08/22 03:34:48;;;;;;;2.33;1.60;;;22.40;85.90;;;;;;5070448;28;20132;-35
2023/08/22 03:37:15;;;;;;;3.35;1.58;;;;;;;;;;5069614;28;20468;-33
2023/08/22 03:39:43;;;;;;;2.10;1.60;;;21.20;84.90;;;;;;5071230;28;20148;-37
2023/08/22 03:42:10;;;;;;;2.15;1.50;;;22.00;84.60;;;;;;5071116;28;20102;-38
2023/08/22 03:44:36;;;;;;;2.05;1.60;;;22.20;85.10;;;;;;5071573;28;20135;-31
2023/08/22 03:47:03;;;;;;;1.67;1.58;;;;;;;;;;5070224;28;20553;-31
2023/08/22 03:49:30;;;;;;;2.00;1.55;;;22.10;85.00;;;;;;5071325;28;20132;-30
2023/08/22 03:51:57;;;;;;;2.80;1.60;;;;;;;;;;5066156;28;20048;-33
2023/08/22 03:54:24;;;;;;;2.17;1.60;;;21.90;84.80;;;;;;5054619;28;20087;-31
2023/08/22 03:56:52;;;;;;;1.60;1.45;;;23.20;78.10;;;;;;5054897;28;20148;-31
2023/08/22 03:59:19;;;;;;;2.65;1.58;;;22.40;86.10;;;;;;5054616;28;20590;-31
2023/08/22 04:01:46;;;;;;;1.88;1.60;;;;;;;;;;5057035;28;20045;-34
2023/08/22 04:04:14;;;;;;;2.00;1.45;;;21.80;85.70;;;;;;5074188;28;20135;-31
2023/08/22 04:06:40;;;;;;;2.00;1.60;;;22.40;85.30;;;;;;5074693;28;20048;-30
2023/08/22 04:09:07;;;;;;;2.78;1.50;;;22.20;85.10;;;;;;5074073;28;20492;-31
2023/08/22 04:11:34;;;;;;;2.25;1.60;;;21.80;79.80;;;;;;5074441;28;20099;-30
2023/08/22 04:14:02;;;;;;;3.38;1.48;;;23.10;85.60;;;;;;5074328;28;20132;-30
2023/08/22 04:16:29;;;;;;;3.83;1.60;;;20.90;84.30;;;;;;5074333;28;20135;-31
2023/08/22 04:18:55;;;;;;;1.60;1.50;;;21.50;84.80;;;;;;5074746;28;20127;-30
2023/08/22 04:21:22;;;;;;;1.70;1.52;;;22.20;74.40;;;;;;5074367;28;20051;-31
2023/08/22 04:23:49;;;;;;;1.90;1.50;;;23.00;85.50;;;;;;5073934;28;20136;-31
2023/08/22 04:26:15;;;;;;;2.42;1.60;;;21.90;84.90;;;;;;5073889;28;20135;-31
2023/08/22 04:28:42;;;;;;;2.22;1.60;;;;;;;;;;5074128;28;20131;-33
2023/08/22 04:31:10;;;;;;;2.78;1.70;;;21.90;77.80;;;;;;5073573;28;20139;-31
2023/08/22 04:33:37;;;;;;;2.45;1.75;;;22.20;85.10;;;;;;5074046;28;20123;-30
2023/08/22 04:36:06;;;;;;;1.90;1.60;;;23.00;85.60;;;;;;5073340;28;20123;-30
2023/08/22 04:38:33;;;;;;;2.60;1.70;;;;;;;;;;5073896;28;20493;-33
2023/08/22 04:40:59;;;;;;;1.73;1.50;;;22.90;86.30;;;;;;5064324;28;20475;-31
2023/08/22 04:43:27;;;;;;;2.40;1.65;;;21.20;81.70;;;;;;5053648;28;20140;-30
2023/08/22 04:45:54;;;;;;;2.00;1.55;;;22.00;85.10;;;;;;5054069;28;20087;-31
2023/08/22 04:48:23;;;;;;;1.77;1.50;;;22.00;68.60;;;;;;5053828;28;20131;-34
2023/08/22 04:50:49;;;;;;;1.90;1.67;;;21.90;84.90;;;;;;5053824;28;20418;-30
2023/08/22 04:53:16;;;;;;;1.65;1.50;;;21.40;85.60;;;;;;5053087;28;20060;-31
2023/08/22 04:55:43;;;;;;;2.00;1.65;;;;;;;;;;5053892;28;20128;-32
2023/08/22 04:58:10;;;;;;;1.55;1.45;;;;;;;;;;5054534;28;20128;-34
2023/08/22 05:00:37;;;;;;;4.32;1.80;;;;;;;;;;5053706;28;20132;-32
2023/08/22 05:03:05;;;;;;;2.42;1.50;;;21.10;84.50;;;;;;5066181;28;20123;-35
2023/08/22 05:05:33;;;;;;;2.08;1.55;;;22.10;68.60;;;;;;5073358;28;20049;-35
2023/08/22 05:08:00;;;;;;;2.00;1.60;;;;;;;;;;5072466;28;20101;-36
2023/08/22 05:10:26;;;;;;;2.17;1.50;;;22.70;85.50;;;;;;5073097;28;20128;-34
2023/08/22 05:12:53;;;;;;;2.83;1.40;;;21.20;84.70;;;;;;5072340;28;20201;-36
2023/08/22 05:15:20;;;;;;;2.05;1.70;;;;;;;;;;5072821;28;20139;-38
2023/08/22 05:17:47;;;;;;;2.60;1.80;;;21.90;85.10;;;;;;5073179;28;20095;-36
2023/08/22 05:20:14;;;;;;;2.03;1.50;;;;;;;;;;5073204;28;20132;-32
2023/08/22 05:22:42;;;;;;;2.70;1.65;;;22.40;85.30;;;;;;5072597;28;20131;-35
2023/08/22 05:25:09;;;;;;;2.10;1.70;;;20.80;84.40;;;;;;5073060;28;20147;-39
2023/08/22 05:27:36;;;;;;;2.58;1.70;;;;;;;;;;5072893;28;20127;-35
2023/08/22 05:30:04;;;;;;;4.13;1.70;;;22.00;68.60;;;;;;5066148;28;20140;-34
2023/08/22 05:32:31;;;;;;;2.13;1.60;;;;;;;;;;5062300;28;20044;-32
2023/08/22 05:34:58;;;;;;;1.98;1.70;;;22.00;85.20;;;;;;5061774;28;20124;-33
2023/08/22 05:37:25;;;;;;;2.50;1.63;;;21.00;81.90;;;;;;5060968;28;20051;-35
2023/08/22 05:39:53;;;;;;;2.47;1.55;;;22.50;85.80;;;;;;5063125;28;20048;-39
2023/08/22 05:42:20;;;;;;;1.85;1.40;;;;;;;;;;5062172;28;20136;-36
2023/08/22 05:44:47;;;;;;;1.80;1.45;;;21.80;74.70;;;;;;5061284;28;20123;-36
2023/08/22 05:47:13;;;;;;;2.05;1.85;;;22.10;85.90;;;;;;5058719;28;20068;-36
2023/08/22 05:49:43;;;;;;;3.70;1.90;;;22.50;85.20;;;;;;5062331;28;20079;-36
2023/08/22 05:52:09;;;;;;;2.33;1.77;;;22.40;85.50;;;;;;5060878;28;20048;-38
2023/08/22 05:54:36;;;;;;;3.15;1.80;;;21.60;84.90;;;;;;5053462;28;20041;-37
2023/08/22 05:57:04;;;;;;;2.50;1.88;;;21.90;68.40;;;;;;5056221;28;20127;-33
2023/08/22 05:59:31;;;;;;;2.33;1.70;;;21.70;73.70;;;;;;5060774;28;20120;-33
2023/08/22 06:01:58;;;;;;;2.88;2.03;;;21.70;84.80;;;;;;5059988;28;20127;-36
2023/08/22 06:04:25;;;;;;;2.75;1.90;;;21.50;84.70;;;;;;5053333;28;20132;-39
2023/08/22 06:06:51;;;;;;;1.95;1.70;;;21.50;73.10;;;;;;5052985;28;20045;-34
2023/08/22 06:09:18;;;;;;;2.90;1.52;;;22.40;85.40;;;;;;5053543;28;20123;-34
2023/08/22 06:11:45;;;;;;;3.17;1.88;;;21.30;85.50;;;;;;5069719;28;20115;-39
2023/08/22 06:14:13;;;;;;;2.63;1.83;;;21.70;69.30;;;;;;5060707;28;20120;-36
2023/08/22 06:16:40;;;;;;;2.42;1.98;;;;;;;;;;5060189;28;20132;-34
2023/08/22 06:19:07;;;;;;;3.53;2.20;;;21.40;85.20;;;;;;5059298;28;20041;-34
2023/08/22 06:21:34;;;;;;;3.25;1.95;;;;;;;;;;5059244;28;20140;-34
2023/08/22 06:24:00;;;;;;;2.65;1.85;;;21.40;84.70;;;;;;5062158;28;20122;-36
2023/08/22 06:26:27;;;;;;;2.80;1.73;;;22.10;85.20;;;;;;5066023;28;20075;-38
2023/08/22 06:28:54;;;;;;;1.98;1.70;;;;;;;;;;5060677;28;20128;-35
2023/08/22 06:31:23;;;;;;;2.17;1.60;;;23.00;85.60;;;;;;5061364;28;20120;-38
2023/08/22 06:33:49;;;;;;;2.55;1.70;;;22.20;85.20;;;;;;5062277;28;20048;-36
2023/08/22 06:36:16;;;;;;;5.20;1.77;;;;;;;;;;5057299;28;20127;-31
2023/08/22 06:38:43;;;;;;;2.42;1.80;;;21.60;85.30;;;;;;5070368;28;20127;-36
2023/08/22 06:41:10;;;;;;;2.05;1.77;;;21.50;84.90;;;;;;5071808;28;20210;-37
2023/08/22 06:43:36;;;;;;;2.13;1.70;;;22.00;74.60;;;;;;5071602;28;20123;-34
2023/08/22 06:46:03;;;;;;;2.47;1.60;;;22.10;86.10;;;;;;5071980;28;20079;-37
2023/08/22 06:48:31;;;;;;;2.83;1.88;;;21.70;85.90;;;;;;5069308;28;20135;-38
2023/08/22 06:50:58;;;;;;;2.20;1.70;;;21.20;84.90;;;;;;5069249;28;20475;-37
2023/08/22 06:53:25;;;;;;;2.80;1.77;;;;;;;;;;5051537;28;20136;-35
2023/08/22 06:55:52;;;;;;;2.92;1.75;;;22.30;86.30;;;;;;5051858;28;20131;-36
2023/08/22 06:58:18;;;;;;;4.38;1.80;;;22.20;85.80;;;;;;5051787;28;20124;-35
2023/08/22 07:00:45;;;;;;;2.40;1.48;;;22.30;76.10;;;;;;5051451;28;20140;-37
2023/08/22 07:03:12;;;;;;;4.32;1.75;;;22.30;86.20;;;;;;5065470;28;20053;-37
2023/08/22 07:05:40;;;;;;;1.95;1.65;;;23.00;86.20;;;;;;5071885;28;20456;-38
2023/08/22 07:08:07;;;;;;;2.47;1.77;;;22.00;69.90;;;;;;5064437;28;20064;-37
2023/08/22 07:10:34;;;;;;;2.03;1.63;;;21.40;85.30;;;;;;5051267;28;20049;-38
2023/08/22 07:13:02;;;;;;;2.58;1.63;;;;;;;;;;5051257;28;20060;-36
2023/08/22 07:15:29;;;;;;;2.85;1.80;;;;;;;;;;5051615;28;20052;-34
2023/08/22 07:17:56;;;;;;;2.75;1.95;;;22.20;85.30;;;;;;5051719;28;20075;-37
2023/08/22 07:20:23;;;;;;;3.13;1.70;;;;;;;;;;5056979;28;20159;-34
2023/08/22 07:22:51;;;;;;;2.60;1.80;;;22.00;85.70;;;;;;5056543;28;20088;-34
2023/08/22 07:25:18;;;;;;;2.92;1.73;;;21.50;85.10;;;;;;5065745;28;20048;-38
2023/08/22 07:27:45;;;;;;;2.13;1.70;;;22.20;86.00;;;;;;5075252;28;20131;-38
2023/08/22 07:30:13;;;;;;;2.95;1.75;;;23.00;70.40;;;;;;5074605;28;20056;-36
2023/08/22 07:32:39;;;;;;;5.50;1.63;;;22.00;85.50;;;;;;5075327;28;20079;-38
2023/08/22 07:35:06;;;;;;;2.33;1.70;;;21.70;78.10;;;;;;5075292;28;20151;-35
2023/08/22 07:37:34;;;;;;;3.33;1.77;;;22.90;86.40;;;;;;5074925;28;20080;-31
2023/08/22 07:40:02;;;;;;;3.22;1.70;;;21.50;78.60;;;;;;5075041;28;20080;-31
2023/08/22 07:42:28;;;;;;;4.82;2.08;;;21.70;77.00;;;;;;5058749;28;20550;-31
2023/08/22 07:44:55;;;;;;;2.05;1.80;;;22.60;86.60;;;;;;5063081;28;20099;-30
2023/08/22 07:47:22;;;;;;;3.17;1.85;;;21.90;86.40;;;;;;5064173;28;20073;-31
2023/08/22 07:49:48;;;;;;;2.22;1.77;;;21.50;74.00;;;;;;5054843;28;20134;-31
2023/08/22 07:52:15;;;;;;;4.03;1.90;;;;;;;;;;5052991;28;20120;-32
2023/08/22 07:54:43;;;;;;;2.40;1.70;;;;;;;;;;5053454;28;20132;-34
2023/08/22 07:57:11;;;;;;;3.10;1.70;;;22.20;74.40;;;;;;5056172;28;20576;-31
2023/08/22 07:59:38;;;;;;;3.95;1.67;;;20.80;84.90;;;;;;5073278;28;20406;-31
2023/08/22 08:02:05;;;;;;;2.10;1.70;;;22.20;74.20;;;;;;5073275;28;20139;-30
2023/08/22 08:04:33;;;;;;;3.35;1.85;;;22.20;81.70;;;;;;5073260;28;20147;-32
2023/08/22 08:06:59;;;;;;;2.97;1.90;;;22.10;84.80;;;;;;5073964;28;20049;-31
2023/08/22 08:09:26;;;;;;;4.38;1.88;;;21.80;85.50;;;;;;5074625;28;20083;-31
2023/08/22 08:11:53;;;;;;;3.30;1.92;;;;;;;;;;5073932;28;20123;-30
2023/08/22 08:14:21;;;;;;;4.28;1.55;;;22.60;86.10;;;;;;5064988;28;20057;-31
2023/08/22 08:16:48;;;;;;;3.25;1.88;;;22.50;86.60;;;;;;5060807;28;20151;-30
2023/08/22 08:19:15;;;;;;;2.10;1.50;;;21.20;85.40;;;;;;5074201;28;20052;-36
2023/08/22 08:21:42;;;;;;;2.08;1.60;;;22.30;81.00;;;;;;5074146;28;20098;-36
2023/08/22 08:24:09;;;;;;;2.13;1.63;;;;;;;;;;5074510;28;20131;-38
2023/08/22 08:26:37;;;;;;;3.00;1.70;;;22.40;86.50;;;;;;5074060;28;20123;-39
2023/08/22 08:29:04;;;;;;;2.65;1.85;;;22.20;83.90;;;;;;5074272;28;20132;-37
2023/08/22 08:31:32;;;;;;;2.13;1.50;;;22.30;74.20;;;;;;5057342;28;20073;-36
2023/08/22 08:33:59;;;;;;;5.68;1.60;;;22.40;85.70;;;;;;5054063;28;20136;-36
2023/08/22 08:36:26;;;;;;;2.42;1.70;;;;;;;;;;5057812;28;20136;-34
2023/08/22 08:38:52;;;;;;;3.60;1.60;;;21.20;78.70;;;;;;5073995;28;20123;-35
2023/08/22 08:41:19;;;;;;;2.85;1.70;;;21.10;80.40;;;;;;5068579;28;20124;-35
2023/08/22 08:43:46;;;;;;;2.80;1.70;;;;;;;;;;5053613;28;20148;-32
2023/08/22 08:46:13;;;;;;;2.13;1.50;;;;;;;;;;5054930;28;20127;-36
2023/08/22 08:48:41;;;;;;;1.98;1.38;;;22.00;69.00;;;;;;5053794;28;20139;-32
2023/08/22 08:51:08;;;;;;;2.65;1.50;;;;;;;;;;5053631;28;20127;-36
2023/08/22 08:53:35;;;;;;;2.47;1.58;;;21.60;85.60;;;;;;5053590;28;20136;-30
2023/08/22 08:56:04;;;;;;;2.42;1.67;;;;;;;;;;5053672;28;20087;-35
2023/08/22 08:58:30;;;;;;;2.67;1.50;;;22.40;71.60;;;;;;5053437;28;20053;-32
2023/08/22 09:00:57;;;;;;;3.13;1.35;;;21.90;75.20;;;;;;5053581;28;20120;-31
2023/08/22 09:03:24;;;;;;;2.05;1.52;;;22.20;85.60;;;;;;5056896;28;20449;-30
2023/08/22 09:05:52;;;;;;;3.22;1.35;;;22.10;84.30;;;;;;5053417;28;20095;-38
2023/08/22 09:08:20;;;;;;;2.17;1.50;;;22.10;83.00;;;;;;5053560;28;20127;-36
2023/08/22 09:10:49;;;;;;;2.10;1.45;;;22.10;68.80;;;;;;5053424;28;20139;-38
2023/08/22 09:13:16;;;;;;;6.03;1.63;;;21.70;85.00;;;;;;5061117;28;20049;-38
2023/08/22 09:15:43;;;;;;;3.15;1.52;;;;;;;;;;5068727;28;20080;-34
2023/08/22 09:18:13;;;;;;;3.40;1.75;;;22.60;85.40;;;;;;5054960;28;20087;-38
2023/08/22 09:20:45;;;;;;;2.47;1.38;;;22.30;85.20;;;;;;5052752;28;20134;-31
2023/08/22 09:23:21;;;;;;;2.85;1.60;;;22.00;70.90;;;;;;5052240;28;20045;-32
2023/08/22 09:25:47;;;;;;;2.15;1.58;;;22.40;79.80;;;;;;5060916;28;20048;-32
2023/08/22 09:28:16;;;;;;;3.20;1.40;;;21.90;85.00;;;;;;5060340;28;20056;-31
2023/08/22 09:30:49;;;;;;;2.97;1.50;;;22.20;68.70;;;;;;5059841;28;20127;-33
2023/08/22 09:33:16;;;;;;;1.80;1.30;;;22.40;77.60;;;;;;5066947;28;20536;-31
2023/08/22 09:35:43;;;;;;;2.47;1.50;;;21.70;85.20;;;;;;5061775;28;20135;-31
2023/08/22 09:38:10;;;;;;;2.47;1.63;;;;;;;;;;5071573;28;20127;-36
2023/08/22 09:40:42;;;;;;;4.38;1.40;;;22.20;84.80;;;;;;5060998;28;20045;-31
2023/08/22 09:43:09;;;;;;;2.05;1.20;;;21.90;85.00;;;;;;5060685;28;20128;-31
2023/08/22 09:45:39;;;;;;;2.30;1.40;;;22.60;85.00;;;;;;5060466;28;20123;-35
2023/08/22 09:48:07;;;;;;;2.75;1.20;;;22.30;68.50;;;;;;5061694;28;20065;-34
2023/08/22 09:50:35;;;;;;;2.38;1.30;;;22.40;85.10;;;;;;5063877;28;20079;-38
2023/08/22 09:53:02;;;;;;;3.13;1.55;;;;;;;;;;5061268;28;20124;-35
2023/08/22 09:55:29;;;;;;;2.15;1.30;;;22.80;85.00;;;;;;5062695;28;20131;-40
2023/08/22 09:57:57;;;;;;;2.85;1.40;;;22.40;68.40;;;;;;5060852;28;20120;-33
2023/08/22 10:00:26;;;;;;;2.83;1.38;;;23.10;85.00;;;;;;5062563;28;20123;-39
2023/08/22 10:02:53;;;;;;;5.03;1.40;;;22.60;76.80;;;;;;5062566;28;20413;-38
2023/08/22 10:05:19;;;;;;;1.90;1.40;;;22.10;84.90;;;;;;5060786;28;20461;-36
2023/08/22 10:07:46;;;;;;;2.00;1.30;;;22.30;84.60;;;;;;5063128;28;20131;-35
2023/08/22 10:10:13;;;;;;;2.25;1.40;;;22.70;76.90;;;;;;5065131;28;20570;-32
2023/08/22 10:12:39;;;;;;;2.63;1.27;;;22.60;84.90;;;;;;5051841;28;20132;-31
2023/08/22 10:15:08;;;;;;;1.40;1.13;;;22.40;84.50;;;;;;5051981;28;20048;-31
2023/08/22 10:17:36;;;;;;;1.38;1.00;;;22.20;73.50;;;;;;5052003;28;20099;-31
2023/08/22 10:20:05;;;;;;;2.75;1.38;;;22.40;68.20;;;;;;5052018;28;20053;-31
2023/08/22 10:22:32;;;;;;;2.08;1.20;;;21.80;85.00;;;;;;5051766;28;20053;-31
2023/08/22 10:25:02;;;;;;;2.15;1.30;;;22.50;68.20;;;;;;5062406;28;20056;-35
2023/08/22 10:27:29;;;;;;;1.90;1.20;;;;;;;;;;5063357;28;20408;-33
2023/08/22 10:30:19;;;;;;;3.83;1.40;;;22.90;85.50;;;;;;5061368;28;20120;-30
2023/08/22 10:33:05;;;;;;;1.92;1.33;;;22.60;84.70;;;;;;5051322;28;20041;-30
2023/08/22 10:35:32;;;;;;;2.40;1.30;;;;;;;;;;5051249;28;20533;-31
2023/08/22 10:37:58;;;;;;;3.67;1.30;;;22.90;84.70;;;;;;5058908;28;20187;-30
2023/08/22 10:40:35;;;;;;;3.50;1.40;;;22.50;68.30;;;;;;5062762;28;20079;-32
2023/08/22 10:43:12;;;;;;;3.47;1.80;;;22.10;84.20;;;;;;5051210;28;20084;-39
2023/08/22 10:45:50;;;;;;;2.97;1.40;;;22.70;85.40;;;;;;5051123;28;20134;-38
2023/08/22 10:48:18;;;;;;;5.75;1.45;;;22.10;84.60;;;;;;5051201;28;20072;-40
2023/08/22 10:50:46;;;;;;;2.90;1.30;;;22.20;84.30;;;;;;5051741;28;20124;-35
2023/08/22 10:53:28;;;;;;;3.55;1.35;;;22.30;84.40;;;;;;5051586;28;20103;-38
2023/08/22 10:55:55;;;;;;;3.60;1.67;;;22.40;84.60;;;;;;5051361;28;20049;-39
2023/08/22 10:58:38;;;;;;;4.25;1.40;;;22.10;84.90;;;;;;5051706;28;20525;-38
2023/08/22 11:01:15;;;;;;;3.67;1.40;;;22.50;68.10;;;;;;5054957;28;20565;-40
2023/08/22 11:03:42;;;;;;;5.55;1.50;;;23.90;68.90;;;;;;5073728;28;20075;-39
2023/08/22 11:06:12;;;;;;;1.92;1.20;;;22.50;68.10;;;;;;5075295;28;20509;-38
2023/08/22 11:08:39;;;;;;;2.25;1.25;;;22.20;83.90;;;;;;5071968;28;20131;-38
2023/08/22 11:11:06;;;;;;;2.35;1.30;;;21.80;84.20;;;;;;5064339;28;20581;-40
2023/08/22 11:13:37;;;;;;;4.22;1.40;;;22.70;70.80;;;;;;5061369;28;20136;-37
2023/08/22 11:16:09;;;;;;;2.75;1.27;;;22.60;84.30;;;;;;5062053;28;20049;-30
2023/08/22 11:18:36;;;;;;;1.83;1.40;;;;;;;;;;5056059;28;20425;-32
2023/08/22 11:21:03;;;;;;;5.43;1.45;;;;;;;;;;5055198;28;20506;-35
2023/08/22 11:23:31;;;;;;;2.85;1.35;;;22.80;85.00;;;;;;5055211;28;20041;-31
2023/08/22 11:26:00;;;;;;;2.03;1.20;;;;;;;;;;5055435;28;20124;-34
2023/08/22 11:28:31;;;;;;;1.65;1.20;;;22.60;68.00;;;;;;5062992;28;20045;-35
2023/08/22 11:30:58;;;;;;;5.32;1.50;;;;;;;;;;5055129;28;20081;-32
2023/08/22 11:33:34;;;;;;;2.33;1.27;;;22.60;68.00;;;;;;5054831;28;20502;-33
2023/08/22 11:36:00;;;;;;;1.70;1.25;;;22.90;84.20;;;;;;5055940;28;20128;-30
2023/08/22 11:38:27;;;;;;;1.73;1.10;;;;;;;;;;5075325;28;20144;-31
2023/08/22 11:40:55;;;;;;;3.55;1.17;;;22.50;83.90;;;;;;5075030;28;20135;-30
2023/08/22 11:43:22;;;;;;;3.35;1.20;;;22.90;71.10;;;;;;5074811;28;20076;-32
2023/08/22 11:45:49;;;;;;;3.80;1.30;;;23.20;85.00;;;;;;5074591;28;20128;-31
2023/08/22 11:48:16;;;;;;;3.13;1.10;;;22.70;67.90;;;;;;5061250;28;20053;-35
2023/08/22 11:50:45;;;;;;;3.10;1.30;;;22.50;84.70;;;;;;5055106;28;20140;-30
2023/08/22 11:53:13;;;;;;;2.15;1.20;;;22.80;84.90;;;;;;5054558;28;20053;-29
2023/08/22 11:55:40;;;;;;;2.50;1.30;;;23.50;84.40;;;;;;5054809;28;20127;-30
2023/08/22 11:58:07;;;;;;;1.70;1.10;;;22.20;84.00;;;;;;5054608;28;20049;-31
2023/08/22 12:00:34;;;;;;;2.83;1.10;;;22.90;84.80;;;;;;5054404;28;20132;-30
2023/08/22 12:03:05;;;;;;;3.00;1.25;;;22.20;69.60;;;;;;5069674;28;20135;-33
2023/08/22 12:05:32;;;;;;;4.15;1.40;;;22.60;84.50;;;;;;5055161;28;20057;-31
2023/08/22 12:08:01;;;;;;;2.03;1.20;;;23.00;83.90;;;;;;5054607;28;20131;-30
2023/08/22 12:10:38;;;;;;;2.35;1.10;;;23.00;84.10;;;;;;5054750;28;20133;-31
2023/08/22 12:13:05;;;;;;;1.90;1.17;;;22.40;83.80;;;;;;5053648;28;20133;-30
2023/08/22 12:15:32;;;;;;;2.05;1.20;;;22.40;78.20;;;;;;5054279;28;20171;-30
2023/08/22 12:17:58;;;;;;;2.58;1.23;;;22.60;71.20;;;;;;5054328;28;20479;-31
2023/08/22 12:20:25;;;;;;;2.67;1.10;;;22.90;83.80;;;;;;5055592;28;20137;-30
2023/08/22 12:22:52;;;;;;;3.30;1.40;;;22.60;83.70;;;;;;5054270;28;20128;-30
2023/08/22 12:25:20;;;;;;;5.75;1.60;;;22.70;67.70;;;;;;5054215;28;20080;-33
2023/08/22 12:27:47;;;;;;;1.80;1.13;;;;;;;;;;5054053;28;20052;-34
2023/08/22 12:30:14;;;;;;;2.33;1.30;;;23.20;84.30;;;;;;5053956;28;20476;-31
2023/08/22 12:32:42;;;;;;;1.88;1.30;;;22.80;67.60;;;;;;5054035;28;20132;-35
2023/08/22 12:35:10;;;;;;;2.30;1.25;;;;;;;;;;5053712;28;20525;-33
2023/08/22 12:37:37;;;;;;;4.20;1.20;;;22.70;73.20;;;;;;5072666;28;20048;-31
2023/08/22 12:40:10;;;;;;;2.60;1.30;;;22.50;70.50;;;;;;5073872;28;20144;-31
2023/08/22 12:42:39;;;;;;;4.32;1.85;;;22.80;84.50;;;;;;5073635;28;20090;-30
2023/08/22 12:45:06;;;;;;;2.15;1.30;;;22.90;76.60;;;;;;5074414;28;20048;-36
2023/08/22 12:47:33;;;;;;;1.85;1.25;;;;;;;;;;5073539;28;20044;-32
2023/08/22 12:50:00;;;;;;;2.72;1.40;;;;;;;;;;5073759;28;20135;-31
2023/08/22 12:52:28;;;;;;;1.60;1.20;;;;;;;;;;5072542;28;20140;-34
2023/08/22 12:54:54;;;;;;;2.00;1.20;;;22.90;83.50;;;;;;5073759;28;20139;-31
2023/08/22 12:57:21;;;;;;;1.40;1.17;;;23.80;84.40;;;;;;5073159;28;20127;-31
2023/08/22 12:59:49;;;;;;;1.88;1.20;;;22.90;67.50;;;;;;5073506;28;20135;-33
2023/08/22 13:02:16;;;;;;;1.83;1.20;;;;;;;;;;5073064;28;20045;-33
2023/08/22 13:04:43;;;;;;;1.30;1.05;;;22.30;83.50;;;;;;5073589;28;20051;-30
2023/08/22 13:07:10;;;;;;;1.80;0.98;;;23.50;84.40;;;;;;5073404;28;20309;-31
2023/08/22 13:09:37;;;;;;;2.15;1.10;;;22.60;84.10;;;;;;5072594;28;20131;-32
2023/08/22 13:12:04;;;;;;;2.33;1.20;;;;;;;;;;5072880;28;20083;-34